createdAt,value
2024-01-10T00:01:38.151Z,102871.47
2024-01-10T00:06:35.043Z,102833.63
2024-01-10T00:11:33.726Z,102862.56
2024-01-10T00:16:31.961Z,102870.22
2024-01-10T00:21:29.129Z,102831.47
2024-01-10T00:26:25.959Z,102829.63
2024-01-10T00:31:22.867Z,102859.50
2024-01-10T00:36:19.693Z,102833.03
2024-01-10T00:41:16.551Z,102853.41
2024-01-10T00:46:13.546Z,102863.63
2024-01-10T00:51:13.412Z,102834.59
2024-01-10T00:56:10.961Z,102841.78
2024-01-10T01:01:07.822Z,102838.03
2024-01-10T01:06:04.964Z,102773.13
2024-01-10T01:11:01.806Z,102824.03
2024-01-10T01:15:59.159Z,102825.78
2024-01-10T01:20:56.401Z,102808.91
2024-01-10T01:25:53.241Z,102807.91
2024-01-10T01:30:50.070Z,102816.69
2024-01-10T01:35:46.892Z,102840.25
2024-01-10T01:40:43.745Z,102839.97
2024-01-10T01:45:40.531Z,102837.41
2024-01-10T01:50:37.377Z,102838.88
2024-01-10T01:55:34.273Z,102813.28
2024-01-10T02:00:31.685Z,102831.69
2024-01-10T02:05:29.633Z,102836.72
2024-01-10T02:10:26.653Z,102832.16
2024-01-10T02:15:23.509Z,102830.31
2024-01-10T02:20:22.207Z,102792.75
2024-01-10T02:25:19.825Z,102826.97
2024-01-10T02:30:17.153Z,102827.72
2024-01-10T02:35:14.053Z,102822.59
2024-01-10T02:40:11.288Z,102831.13
2024-01-10T02:45:08.273Z,102824.09
2024-01-10T02:50:06.536Z,102824.09
2024-01-10T02:55:03.408Z,102824.91
2024-01-10T03:00:00.274Z,102811.16
2024-01-10T03:04:57.166Z,102812.13
2024-01-10T03:09:53.973Z,102805.94
2024-01-10T03:14:50.846Z,102810.28
2024-01-10T03:19:47.673Z,102800.88
2024-01-10T03:24:46.929Z,102801.78
2024-01-10T03:29:43.709Z,102808.00
2024-01-10T03:34:42.832Z,102802.19
2024-01-10T03:39:39.641Z,102785.03
2024-01-10T03:44:36.503Z,102795.44
2024-01-10T03:49:33.329Z,102786.03
2024-01-10T03:54:30.084Z,102787.72
2024-01-10T03:59:26.921Z,102759.75
2024-01-10T04:04:23.805Z,102782.81
2024-01-10T04:09:20.881Z,102783.63
2024-01-10T04:14:18.886Z,102794.09
2024-01-10T04:19:23.004Z,102787.19
2024-01-10T04:24:19.985Z,102778.66
2024-01-10T04:29:16.895Z,102776.91
2024-01-10T04:34:13.731Z,102768.25
2024-01-10T04:39:10.553Z,102771.06
2024-01-10T04:44:07.465Z,102782.34
2024-01-10T04:49:04.343Z,102756.66
2024-01-10T04:54:01.153Z,102750.66
2024-01-10T04:58:58.019Z,102765.69
2024-01-10T05:03:54.836Z,102778.00
2024-01-10T05:08:51.972Z,102782.22
2024-01-10T05:13:48.728Z,102767.22
2024-01-10T05:18:45.777Z,102772.66
2024-01-10T05:23:42.592Z,102775.63
2024-01-10T05:28:39.447Z,102766.56
2024-01-10T05:33:36.289Z,102761.38
2024-01-10T05:38:33.178Z,102771.66
2024-01-10T05:43:30.001Z,102772.31
2024-01-10T05:48:27.737Z,102770.78
2024-01-10T05:53:26.049Z,102771.09
2024-01-10T05:58:22.838Z,102773.44
2024-01-10T06:03:19.780Z,102765.53
2024-01-10T06:08:16.939Z,102774.00
2024-01-10T06:13:14.031Z,102773.06
2024-01-10T06:18:10.954Z,102780.72
2024-01-10T06:23:07.831Z,102784.97
2024-01-10T06:28:04.720Z,102754.09
2024-01-10T06:33:01.779Z,102784.16
2024-01-10T06:37:58.757Z,102784.91
2024-01-10T06:42:55.925Z,102745.53
2024-01-10T06:47:52.734Z,102779.16
2024-01-10T06:52:49.574Z,102728.28
2024-01-10T06:57:46.787Z,102783.56
2024-01-10T07:02:43.627Z,102752.81
2024-01-10T07:07:40.420Z,102787.03
2024-01-10T07:12:37.266Z,102792.28
2024-01-10T07:17:34.874Z,102789.59
2024-01-10T07:22:34.107Z,102790.47
2024-01-10T07:27:30.914Z,102767.34
2024-01-10T07:32:27.897Z,102795.66
2024-01-10T07:37:24.829Z,102796.34
2024-01-10T07:42:21.619Z,102782.25
2024-01-10T07:47:18.660Z,102812.72
2024-01-10T07:52:17.547Z,102808.22
2024-01-10T07:57:14.354Z,102814.25
2024-01-10T08:02:11.715Z,102799.28
2024-01-10T08:07:09.216Z,102809.09
2024-01-10T08:12:06.381Z,102819.53
2024-01-10T08:17:03.257Z,102803.09
2024-01-10T08:22:00.033Z,102819.25
2024-01-10T08:26:56.822Z,102821.13
2024-01-10T08:31:53.621Z,102829.94
2024-01-10T08:36:52.011Z,102825.09
2024-01-10T08:41:49.203Z,102826.09
2024-01-10T08:46:46.143Z,102842.97
2024-01-10T08:51:45.049Z,102830.59
2024-01-10T08:56:41.788Z,102842.78
2024-01-10T09:01:40.243Z,102839.53
2024-01-10T09:06:37.385Z,102809.00
2024-01-10T09:11:38.138Z,102833.31
2024-01-10T09:16:36.904Z,102805.56
2024-01-10T09:21:33.673Z,102824.56
2024-01-10T09:26:30.702Z,102831.19
2024-01-10T09:31:27.489Z,102825.63
2024-01-10T09:36:24.509Z,102809.03
2024-01-10T09:41:21.441Z,102833.31
2024-01-10T09:46:21.029Z,102800.41
2024-01-10T09:51:17.928Z,102825.66
2024-01-10T09:56:14.777Z,102826.88
2024-01-10T10:01:11.716Z,102822.88
2024-01-10T10:06:11.871Z,102802.25
2024-01-10T10:11:15.899Z,102837.91
2024-01-10T10:16:14.397Z,102845.28
2024-01-10T10:21:14.173Z,102841.50
2024-01-10T10:26:23.429Z,102782.31
2024-01-10T10:31:21.324Z,102838.00
2024-01-10T10:36:18.842Z,102813.00
2024-01-10T10:41:16.022Z,102848.47
2024-01-10T10:46:16.330Z,102841.00
2024-01-10T10:51:18.923Z,102828.53
2024-01-10T10:56:15.760Z,102820.50
2024-01-10T11:01:15.312Z,102813.44
2024-01-10T11:06:12.661Z,102815.81
2024-01-10T11:11:23.970Z,102820.09
2024-01-10T11:16:47.020Z,102817.63
2024-01-10T11:21:46.852Z,102828.91
2024-01-10T11:26:43.737Z,102820.84
2024-01-10T11:31:40.923Z,102812.09
2024-01-10T11:36:37.798Z,102807.50
2024-01-10T11:41:36.921Z,102812.34
2024-01-10T11:46:33.834Z,102808.28
2024-01-10T11:51:31.345Z,102781.38
2024-01-10T11:56:43.277Z,102780.69
2024-01-10T12:01:42.785Z,102799.59
2024-01-10T12:06:40.045Z,102784.16
2024-01-10T12:11:37.201Z,102787.91
2024-01-10T12:16:34.306Z,102783.00
2024-01-10T12:21:31.727Z,102785.75
2024-01-10T12:26:31.134Z,102760.63
2024-01-10T12:31:31.870Z,102766.97
2024-01-10T12:36:28.666Z,102745.38
2024-01-10T12:41:25.502Z,102718.34
2024-01-10T12:46:25.211Z,102713.97
2024-01-10T12:51:22.030Z,102721.84
2024-01-10T12:56:19.418Z,102737.59
2024-01-10T13:01:16.807Z,102715.81
2024-01-10T13:06:13.701Z,102729.75
2024-01-10T13:11:11.232Z,102728.75
2024-01-10T13:16:08.583Z,102719.88
2024-01-10T13:21:09.093Z,102733.69
2024-01-10T13:26:06.131Z,102724.06
2024-01-10T13:31:04.521Z,102711.88
2024-01-10T13:36:02.830Z,102709.91
2024-01-10T13:40:59.844Z,102680.91
2024-01-10T13:45:56.629Z,102706.88
2024-01-10T13:50:53.570Z,102680.63
2024-01-10T13:55:51.651Z,102712.00
2024-01-10T14:00:48.514Z,102716.25
2024-01-10T14:05:46.297Z,102687.25
2024-01-10T14:10:43.646Z,102716.06
2024-01-10T14:15:40.559Z,102716.72
2024-01-10T14:20:39.586Z,102704.28
2024-01-10T14:25:37.212Z,102690.19
2024-01-10T14:30:34.330Z,102699.72
2024-01-10T14:35:31.721Z,102700.63
2024-01-10T14:40:29.068Z,102696.38
2024-01-10T14:45:26.276Z,102706.94
2024-01-10T14:50:26.005Z,102707.81
2024-01-10T14:55:22.854Z,102709.47
2024-01-10T15:00:19.907Z,102718.91
2024-01-10T15:05:17.390Z,102718.84
2024-01-10T15:10:14.337Z,102701.31
2024-01-10T15:15:11.961Z,102712.50
2024-01-10T15:20:09.344Z,102711.63
2024-01-10T15:25:07.579Z,102693.72
2024-01-10T15:30:15.985Z,102691.63
2024-01-10T15:35:14.951Z,102695.75
2024-01-10T15:40:13.247Z,102717.31
2024-01-10T15:45:12.774Z,102727.31
2024-01-10T15:50:11.095Z,102720.31
2024-01-10T15:55:10.059Z,102722.41
2024-01-10T16:00:07.782Z,102717.50
2024-01-10T16:05:05.137Z,102721.78
2024-01-10T16:10:02.166Z,102721.47
2024-01-10T16:14:58.917Z,102702.75
2024-01-10T16:19:55.823Z,102710.44
2024-01-10T16:24:54.356Z,102707.56
2024-01-10T16:29:51.159Z,102735.25
2024-01-10T16:34:48.971Z,102732.44
2024-01-10T16:39:46.898Z,102741.69
2024-01-10T16:44:43.920Z,102735.22
2024-01-10T16:49:40.780Z,102737.59
2024-01-10T16:54:38.039Z,102704.81
2024-01-10T16:59:34.893Z,102749.19
2024-01-10T17:04:31.946Z,102764.53
2024-01-10T17:09:29.967Z,102756.50
2024-01-10T17:14:27.013Z,102762.44
2024-01-10T17:19:24.999Z,102723.72
2024-01-10T17:24:22.231Z,102733.72
2024-01-10T17:29:19.451Z,102772.13
2024-01-10T17:34:16.570Z,102744.03
2024-01-10T17:39:13.313Z,102751.63
2024-01-10T17:44:10.257Z,102790.69
2024-01-10T17:49:07.339Z,102786.97
2024-01-10T17:54:04.226Z,102779.59
2024-01-10T17:59:02.087Z,102795.44
2024-01-10T18:04:06.975Z,102797.78
2024-01-10T18:09:10.410Z,102802.13
2024-01-10T18:14:07.254Z,102804.53
2024-01-10T18:19:04.228Z,102805.31
2024-01-10T18:24:01.419Z,102790.88
2024-01-10T18:28:58.278Z,102813.63
2024-01-10T18:33:55.243Z,102821.19
2024-01-10T18:38:53.101Z,102831.69
2024-01-10T18:43:50.068Z,102835.09
2024-01-10T18:48:46.956Z,102831.38
2024-01-10T18:53:43.772Z,102826.66
2024-01-10T18:58:40.524Z,102849.28
2024-01-10T19:03:37.659Z,102850.09
2024-01-10T19:08:37.820Z,102833.34
2024-01-10T19:13:40.042Z,102815.78
2024-01-10T19:18:37.404Z,102834.88
2024-01-10T19:23:35.342Z,102827.88
2024-01-10T19:28:32.244Z,102858.47
2024-01-10T19:33:29.172Z,102861.78
2024-01-10T19:38:26.269Z,102862.28
2024-01-10T19:43:24.969Z,102865.00
2024-01-10T19:48:21.915Z,102858.78
2024-01-10T19:53:19.068Z,102833.22
2024-01-10T19:58:15.854Z,102863.06
2024-01-10T20:03:12.787Z,102844.47
2024-01-10T20:08:09.742Z,102872.25
2024-01-10T20:13:08.328Z,102849.31
2024-01-10T20:18:05.992Z,102876.56
2024-01-10T20:23:04.045Z,102887.19
2024-01-10T20:28:01.421Z,102882.03
2024-01-10T20:33:01.769Z,102871.66
2024-01-10T20:37:58.730Z,102889.44
2024-01-10T20:42:55.573Z,102903.63
2024-01-10T20:47:52.549Z,102890.69
2024-01-10T20:52:49.479Z,102912.47
2024-01-10T20:57:46.794Z,102899.97
2024-01-10T21:02:43.751Z,102916.00
2024-01-10T21:07:40.570Z,102929.38
2024-01-10T21:12:37.865Z,102931.22
2024-01-10T21:17:34.784Z,102927.84
2024-01-10T21:22:31.819Z,102935.78
2024-01-10T21:27:29.064Z,102937.50
2024-01-10T21:32:26.136Z,102904.84
2024-01-10T21:37:22.999Z,102933.75
2024-01-10T21:42:19.929Z,102928.50
2024-01-10T21:47:16.945Z,102919.59
2024-01-10T21:52:13.853Z,102946.78
2024-01-10T21:57:10.626Z,102895.75
2024-01-10T22:02:07.598Z,102952.81
2024-01-10T22:07:04.547Z,102963.16
2024-01-10T22:12:01.376Z,102979.56
2024-01-10T22:16:58.185Z,102979.47
2024-01-10T22:21:54.975Z,102984.63
2024-01-10T22:26:53.137Z,102995.63
2024-01-10T22:31:50.081Z,102981.41
2024-01-10T22:36:46.957Z,102969.31
2024-01-10T22:41:43.688Z,103013.34
2024-01-10T22:46:40.542Z,103001.25
2024-01-10T22:51:37.302Z,103022.56
2024-01-10T22:56:34.127Z,103035.19
2024-01-10T23:01:32.116Z,103027.88
2024-01-10T23:06:29.221Z,103036.03
2024-01-10T23:11:26.522Z,103045.13
2024-01-10T23:16:24.197Z,103020.88
2024-01-10T23:21:21.115Z,103058.97
2024-01-10T23:26:19.662Z,103042.41
2024-01-10T23:31:18.769Z,103065.72
2024-01-10T23:36:15.688Z,103035.38
2024-01-10T23:41:12.530Z,103056.94
2024-01-10T23:46:09.860Z,103048.59
2024-01-10T23:51:07.038Z,103081.66
2024-01-10T23:56:06.991Z,103080.69
